aviador You're here:

PABL Decoded Metar

BUCKLAND in AK, USA
Report Time2017-11-20 20:56:00
UTC Time2017-11-20 21:17:53
Flight Rules vfr VFR
Wind160° at 12 kt
W.Decomp.*RWY 11: 9.8 kt HW 6.9 kt RCW
W.Rank160° ranks 8
Current wind is above 160° avg. (6.7)
Visibility9999 m
Phenomena:N/A
Clouds:N/A
Expected CloudBase > 1,200 ft AGL from Temp-Dew spread
CeilingNone
Temp-22°C (ISA -37)
Dew Point-25°C (77% RH)
AAT-30.1°C
QNH1023 hPa
Density Alt-5,069 ft
Elevation23 ft
Report Wrong Elevation
Raw Report
PABL 202056Z AUTO 16012KT 10SM CLR M22/M25 A3022 RMK AO2 SLP235
T12221250 58005 FZRANO=

Extra information for PABL:More info

Airport Information Weather charts Add Link Nearby Venues Social comments

AIRNAV info for PABL